createdAt,value
2023-06-26T00:00:09.758Z,27.73
2023-06-26T00:02:37.746Z,29.27
2023-06-26T00:05:06.552Z,30.83
2023-06-26T00:07:36.059Z,31.13
2023-06-26T00:10:04.915Z,29.23
2023-06-26T00:12:33.363Z,28.10
2023-06-26T00:15:04.011Z,25.67
2023-06-26T00:17:38.900Z,27.00
2023-06-26T00:20:08.068Z,26.00
2023-06-26T00:22:42.180Z,29.80
2023-06-26T00:25:10.338Z,28.30
2023-06-26T00:27:38.537Z,28.43
2023-06-26T00:30:08.592Z,27.97
2023-06-26T00:32:37.463Z,27.03
2023-06-26T00:35:07.440Z,27.57
2023-06-26T00:37:35.445Z,24.40
2023-06-26T00:40:06.166Z,24.07
2023-06-26T00:42:34.776Z,23.80
2023-06-26T00:45:02.854Z,23.33
2023-06-26T00:47:33.753Z,23.07
2023-06-26T00:50:01.995Z,23.23
2023-06-26T00:52:30.118Z,21.37
2023-06-26T00:54:58.472Z,24.20
2023-06-26T00:57:26.542Z,23.90
2023-06-26T00:59:55.280Z,21.63
2023-06-26T01:02:23.348Z,23.33
2023-06-26T01:04:54.747Z,21.63
2023-06-26T01:07:23.792Z,22.90
2023-06-26T01:09:51.938Z,22.90
2023-06-26T01:12:20.084Z,21.20
2023-06-26T01:14:50.606Z,22.10
2023-06-26T01:17:19.541Z,21.67
2023-06-26T01:19:47.745Z,21.20
2023-06-26T01:22:21.547Z,22.37
2023-06-26T01:24:58.884Z,21.03
2023-06-26T01:27:28.613Z,23.23
2023-06-26T01:29:57.150Z,23.70
2023-06-26T01:32:25.309Z,22.87
2023-06-26T01:34:54.851Z,22.43
2023-06-26T01:37:22.899Z,22.97
2023-06-26T01:39:51.424Z,23.53
2023-06-26T01:42:20.353Z,23.77
2023-06-26T01:44:50.031Z,22.67
2023-06-26T01:47:21.823Z,26.07
2023-06-26T01:49:54.930Z,25.37
2023-06-26T01:52:24.038Z,27.33
2023-06-26T01:54:56.483Z,23.53
2023-06-26T01:57:25.102Z,24.17
2023-06-26T01:59:56.853Z,24.03
2023-06-26T02:02:25.669Z,25.00
2023-06-26T02:04:54.131Z,27.30
2023-06-26T02:07:22.536Z,23.40
2023-06-26T02:09:50.530Z,24.80
2023-06-26T02:12:18.509Z,24.27
2023-06-26T02:14:46.561Z,23.80
2023-06-26T02:17:16.063Z,26.83
2023-06-26T02:19:48.691Z,26.00
2023-06-26T02:22:17.009Z,25.40
2023-06-26T02:24:45.320Z,26.37
2023-06-26T02:27:13.353Z,26.77
2023-06-26T02:29:41.392Z,27.43
2023-06-26T02:32:10.160Z,26.97
2023-06-26T02:34:39.655Z,27.70
2023-06-26T02:37:08.561Z,29.37
2023-06-26T02:39:37.400Z,29.10
2023-06-26T02:42:05.838Z,29.30
2023-06-26T02:44:34.156Z,30.90
2023-06-26T02:47:02.362Z,29.97
2023-06-26T02:49:30.421Z,30.23
2023-06-26T02:51:59.885Z,30.07
2023-06-26T02:54:30.724Z,31.20
2023-06-26T02:57:04.017Z,31.23
2023-06-26T02:59:33.477Z,32.70
2023-06-26T03:02:01.450Z,31.27
2023-06-26T03:04:37.521Z,32.27
2023-06-26T03:07:08.197Z,32.17
2023-06-26T03:09:36.326Z,31.57
2023-06-26T03:12:04.682Z,33.13
2023-06-26T03:14:35.336Z,31.37
2023-06-26T03:17:05.267Z,32.70
2023-06-26T03:19:35.648Z,33.10
2023-06-26T03:22:25.452Z,33.30
2023-06-26T03:24:53.542Z,31.17
2023-06-26T03:27:21.653Z,34.40
2023-06-26T03:29:51.299Z,34.50
2023-06-26T03:32:20.484Z,33.37
2023-06-26T03:34:49.100Z,34.97
2023-06-26T03:37:17.381Z,34.90
2023-06-26T03:39:47.398Z,36.07
2023-06-26T03:42:15.491Z,33.90
2023-06-26T03:44:43.448Z,33.13
2023-06-26T03:47:11.657Z,36.30
2023-06-26T03:49:39.688Z,33.80
2023-06-26T03:52:08.141Z,33.77
2023-06-26T03:54:36.205Z,35.40
2023-06-26T03:57:05.892Z,33.73
2023-06-26T03:59:34.189Z,33.90
2023-06-26T04:02:02.465Z,34.37
2023-06-26T04:04:31.192Z,32.93
2023-06-26T04:07:01.170Z,32.83
2023-06-26T04:09:29.276Z,33.47
2023-06-26T04:11:57.357Z,33.00
2023-06-26T04:14:26.759Z,32.23
2023-06-26T04:16:54.754Z,31.70
2023-06-26T04:19:22.719Z,30.60
2023-06-26T04:21:50.661Z,34.07
2023-06-26T04:24:18.641Z,31.80
2023-06-26T04:26:47.501Z,29.77
2023-06-26T04:29:15.528Z,31.57
2023-06-26T04:31:47.640Z,29.77
2023-06-26T04:34:16.027Z,29.90
2023-06-26T04:36:47.605Z,30.63
2023-06-26T04:39:16.056Z,28.80
2023-06-26T04:41:44.104Z,28.50
2023-06-26T04:44:12.047Z,27.80
2023-06-26T04:46:42.339Z,29.90
2023-06-26T04:49:11.789Z,30.93
2023-06-26T04:51:41.703Z,28.30
2023-06-26T04:54:10.122Z,28.80
2023-06-26T04:56:38.269Z,29.07
2023-06-26T04:59:06.326Z,27.80
2023-06-26T05:01:34.370Z,27.90
2023-06-26T05:04:02.483Z,26.13
2023-06-26T05:06:31.938Z,27.30
2023-06-26T05:08:59.913Z,28.50
2023-06-26T05:11:27.931Z,26.50
2023-06-26T05:13:55.932Z,25.77
2023-06-26T05:16:24.024Z,26.27
2023-06-26T05:18:52.045Z,27.10
2023-06-26T05:21:20.244Z,25.50
2023-06-26T05:23:50.143Z,27.23
2023-06-26T05:26:18.276Z,26.00
2023-06-26T05:28:49.593Z,25.23
2023-06-26T05:31:18.029Z,26.20
2023-06-26T05:33:46.705Z,26.37
2023-06-26T05:36:14.901Z,25.50
2023-06-26T05:38:43.381Z,26.43
2023-06-26T05:41:13.213Z,24.10
2023-06-26T05:43:41.268Z,23.80
2023-06-26T05:46:09.263Z,25.30
2023-06-26T05:48:37.492Z,25.13
2023-06-26T05:51:05.905Z,24.30
2023-06-26T05:53:34.228Z,24.50
2023-06-26T05:56:02.548Z,23.63
2023-06-26T05:58:32.377Z,23.50
2023-06-26T06:01:00.568Z,23.07
2023-06-26T06:03:28.662Z,23.20
2023-06-26T06:05:56.838Z,24.20
2023-06-26T06:08:24.839Z,25.13
2023-06-26T06:10:52.958Z,22.57
2023-06-26T06:13:20.927Z,22.03
2023-06-26T06:15:50.366Z,21.20
2023-06-26T06:18:18.424Z,20.27
2023-06-26T06:20:46.506Z,20.17
2023-06-26T06:23:15.037Z,22.00
2023-06-26T06:25:43.105Z,21.17
2023-06-26T06:28:11.057Z,22.27
2023-06-26T06:30:45.795Z,20.37
2023-06-26T06:33:16.281Z,19.93
2023-06-26T06:35:44.331Z,20.17
2023-06-26T06:38:12.342Z,18.30
2023-06-26T06:40:40.576Z,20.13
2023-06-26T06:43:08.874Z,19.30
2023-06-26T06:45:38.717Z,18.83
2023-06-26T06:48:06.753Z,17.47
2023-06-26T06:50:36.481Z,17.03
2023-06-26T06:53:04.879Z,16.97
2023-06-26T06:55:32.940Z,17.53
2023-06-26T06:58:02.169Z,15.50
2023-06-26T07:00:32.874Z,16.67
2023-06-26T07:03:01.601Z,16.10
2023-06-26T07:05:29.853Z,16.17
2023-06-26T07:08:01.968Z,16.67
2023-06-26T07:10:31.163Z,15.43
2023-06-26T07:12:59.197Z,15.03
2023-06-26T07:15:27.917Z,15.10
2023-06-26T07:17:56.320Z,13.83
2023-06-26T07:20:24.962Z,14.67
2023-06-26T07:22:53.038Z,12.23
2023-06-26T07:25:22.413Z,13.90
2023-06-26T07:27:50.482Z,12.77
2023-06-26T07:30:18.677Z,12.33
2023-06-26T07:32:47.211Z,12.47
2023-06-26T07:35:15.326Z,12.33
2023-06-26T07:37:43.324Z,11.30
2023-06-26T07:40:11.770Z,12.43
2023-06-26T07:42:41.569Z,11.63
2023-06-26T07:45:12.313Z,12.30
2023-06-26T07:47:40.458Z,11.33
2023-06-26T07:50:08.821Z,11.97
2023-06-26T07:52:37.024Z,13.77
2023-06-26T07:55:05.506Z,10.60
2023-06-26T07:57:33.617Z,11.93
2023-06-26T08:00:03.083Z,10.50
2023-06-26T08:02:42.270Z,9.70
2023-06-26T08:05:10.666Z,11.47
2023-06-26T08:07:38.843Z,12.47
2023-06-26T08:10:07.198Z,11.67
2023-06-26T08:12:35.189Z,11.20
2023-06-26T08:15:05.962Z,11.13
2023-06-26T08:17:34.119Z,10.70
2023-06-26T08:20:02.214Z,12.07
2023-06-26T08:22:30.250Z,12.23
2023-06-26T08:24:58.333Z,10.90
2023-06-26T08:27:26.865Z,10.97
2023-06-26T08:29:55.005Z,11.10
2023-06-26T08:32:24.529Z,10.67
2023-06-26T08:34:53.227Z,10.27
2023-06-26T08:37:21.336Z,11.40
2023-06-26T08:39:49.967Z,10.23
2023-06-26T08:42:18.121Z,11.00
2023-06-26T08:45:00.512Z,10.97
2023-06-26T08:47:32.132Z,10.50
2023-06-26T08:50:05.501Z,11.13
2023-06-26T08:52:37.916Z,9.73
2023-06-26T08:55:08.995Z,9.67
2023-06-26T08:57:37.967Z,9.30
2023-06-26T09:00:09.645Z,8.13
2023-06-26T09:02:39.513Z,8.73
2023-06-26T09:05:07.938Z,9.57
2023-06-26T09:07:36.085Z,10.53
2023-06-26T09:10:04.258Z,8.30
2023-06-26T09:12:33.275Z,9.40
2023-06-26T09:15:02.425Z,8.57
2023-06-26T09:17:33.118Z,8.83
2023-06-26T09:20:02.525Z,9.27
2023-06-26T09:22:31.256Z,9.00
2023-06-26T09:24:59.504Z,10.37
2023-06-26T09:27:27.725Z,8.73
2023-06-26T09:29:57.226Z,8.67
2023-06-26T09:32:26.347Z,8.03
2023-06-26T09:34:56.955Z,8.77
2023-06-26T09:37:26.658Z,7.83
2023-06-26T09:39:54.654Z,8.50
2023-06-26T09:42:22.684Z,9.20
2023-06-26T09:44:52.141Z,7.80
2023-06-26T09:47:22.722Z,8.20
2023-06-26T09:49:53.507Z,8.23
2023-06-26T09:52:21.673Z,8.33
2023-06-26T09:54:51.194Z,7.77
2023-06-26T09:57:20.472Z,7.37
2023-06-26T09:59:48.451Z,8.13
2023-06-26T10:02:16.599Z,8.63
2023-06-26T10:04:44.951Z,9.00
2023-06-26T10:07:13.829Z,7.60
2023-06-26T10:09:43.559Z,9.27
2023-06-26T10:12:14.945Z,8.40
2023-06-26T10:14:46.460Z,9.50
2023-06-26T10:17:17.555Z,8.20
2023-06-26T10:19:46.132Z,8.13
2023-06-26T10:22:14.889Z,8.80
2023-06-26T10:24:43.516Z,10.10
2023-06-26T10:27:14.505Z,7.17
2023-06-26T10:29:44.694Z,8.13
2023-06-26T10:32:13.541Z,9.13
2023-06-26T10:34:41.659Z,8.17
2023-06-26T10:37:09.645Z,8.10
2023-06-26T10:39:50.873Z,7.93
2023-06-26T10:42:20.063Z,8.43
2023-06-26T10:44:50.411Z,8.20
2023-06-26T10:47:31.839Z,8.20
2023-06-26T10:50:22.822Z,8.93
2023-06-26T10:53:10.048Z,8.80
2023-06-26T10:55:39.786Z,8.63
2023-06-26T10:58:30.009Z,7.57
2023-06-26T11:01:13.003Z,8.73
2023-06-26T11:03:43.436Z,8.73
2023-06-26T11:06:11.948Z,8.10
2023-06-26T11:08:46.498Z,9.50
2023-06-26T11:11:14.934Z,7.53
2023-06-26T11:13:43.083Z,9.60
2023-06-26T11:16:11.105Z,8.73
2023-06-26T11:18:39.271Z,9.57
2023-06-26T11:21:09.350Z,8.30
2023-06-26T11:23:38.440Z,8.20
2023-06-26T11:26:16.447Z,9.80
2023-06-26T11:28:51.457Z,8.67
2023-06-26T11:31:29.212Z,7.50
2023-06-26T11:33:57.937Z,9.30
2023-06-26T11:36:27.670Z,7.60
2023-06-26T11:38:56.484Z,8.03
2023-06-26T11:41:24.726Z,9.10
2023-06-26T11:43:53.169Z,7.33
2023-06-26T11:46:22.112Z,7.57
2023-06-26T11:48:50.873Z,8.77
2023-06-26T11:51:18.978Z,7.80
2023-06-26T11:53:48.904Z,8.63
2023-06-26T11:56:17.511Z,9.17
2023-06-26T11:58:57.795Z,8.83
2023-06-26T12:01:25.827Z,8.87
2023-06-26T12:03:53.967Z,9.23
2023-06-26T12:06:22.137Z,9.30
2023-06-26T12:08:51.586Z,8.37
2023-06-26T12:11:20.057Z,7.40
2023-06-26T12:13:48.365Z,8.10
2023-06-26T12:16:16.694Z,9.57
2023-06-26T12:18:44.833Z,7.70
2023-06-26T12:21:27.642Z,7.63
2023-06-26T12:24:04.836Z,10.00
2023-06-26T12:26:34.517Z,7.83
2023-06-26T12:29:05.809Z,8.23
2023-06-26T12:31:34.379Z,7.50
2023-06-26T12:34:02.706Z,7.33
2023-06-26T12:36:30.745Z,7.67
2023-06-26T12:38:58.923Z,8.37
2023-06-26T12:41:28.385Z,8.67
2023-06-26T12:43:58.100Z,8.37
2023-06-26T12:46:36.365Z,8.17
2023-06-26T12:49:07.825Z,8.80
2023-06-26T12:51:38.145Z,8.40
2023-06-26T12:54:06.368Z,8.37
2023-06-26T12:56:36.068Z,11.60
2023-06-26T12:59:04.166Z,8.43
2023-06-26T13:01:32.231Z,9.57
2023-06-26T13:04:00.348Z,8.20
2023-06-26T13:06:28.528Z,8.80
2023-06-26T13:08:56.519Z,8.83
2023-06-26T13:11:26.779Z,8.57
2023-06-26T13:14:09.384Z,8.57
2023-06-26T13:16:39.878Z,10.37
2023-06-26T13:19:07.934Z,7.93
2023-06-26T13:21:36.265Z,8.10
2023-06-26T13:24:04.946Z,9.47
2023-06-26T13:29:05.559Z,9.00
2023-06-26T13:31:33.955Z,7.53
2023-06-26T13:34:03.075Z,7.80
2023-06-26T13:36:31.128Z,7.43
2023-06-26T13:38:59.355Z,8.00
2023-06-26T13:41:27.556Z,8.20
2023-06-26T13:43:57.633Z,8.57
2023-06-26T13:46:30.848Z,7.83
2023-06-26T13:48:58.894Z,8.60
2023-06-26T13:51:27.070Z,7.93
2023-06-26T13:53:56.204Z,8.27
2023-06-26T13:56:24.881Z,8.00
2023-06-26T13:58:52.903Z,7.33
2023-06-26T14:01:21.011Z,7.77
2023-06-26T14:03:50.380Z,9.17
2023-06-26T14:06:18.587Z,8.23
2023-06-26T14:08:46.614Z,9.20
2023-06-26T14:11:16.742Z,9.33
2023-06-26T14:13:45.037Z,8.93
2023-06-26T14:16:13.310Z,8.47
2023-06-26T14:18:41.333Z,8.00
2023-06-26T14:21:10.820Z,8.17
2023-06-26T14:23:38.878Z,9.20
2023-06-26T14:26:06.996Z,9.00
2023-06-26T14:28:34.984Z,8.00
2023-06-26T14:31:03.008Z,10.47
2023-06-26T14:33:30.993Z,11.07
2023-06-26T14:35:58.955Z,10.43
2023-06-26T14:38:28.367Z,10.73
2023-06-26T14:40:56.428Z,12.90
2023-06-26T14:43:24.780Z,11.27
2023-06-26T14:45:53.334Z,12.77
2023-06-26T14:48:21.862Z,12.13
2023-06-26T14:50:49.935Z,10.93
2023-06-26T14:53:17.876Z,11.20
2023-06-26T14:55:47.252Z,11.47
2023-06-26T14:58:15.409Z,17.03
2023-06-26T15:00:44.928Z,12.97
2023-06-26T15:03:12.998Z,10.90
2023-06-26T15:05:41.106Z,8.70
2023-06-26T15:08:10.882Z,9.73
2023-06-26T15:10:39.056Z,12.13
2023-06-26T15:13:09.603Z,14.00
2023-06-26T15:15:37.569Z,14.33
2023-06-26T15:18:06.119Z,29.33
2023-06-26T15:20:34.408Z,15.03
2023-06-26T15:23:02.443Z,13.70
2023-06-26T15:25:32.762Z,12.10
2023-06-26T15:28:00.865Z,17.83
2023-06-26T15:30:30.206Z,16.20
2023-06-26T15:32:58.343Z,20.10
2023-06-26T15:35:26.473Z,16.50
2023-06-26T15:37:54.558Z,16.77
2023-06-26T15:40:22.703Z,18.47
2023-06-26T15:42:51.626Z,16.20
2023-06-26T15:45:20.034Z,20.10
2023-06-26T15:47:49.698Z,15.90
2023-06-26T15:50:17.828Z,15.10
2023-06-26T15:52:47.149Z,15.77
2023-06-26T15:55:15.162Z,18.20
2023-06-26T15:57:43.198Z,21.07
2023-06-26T16:00:11.948Z,17.17
2023-06-26T16:02:44.500Z,18.13
2023-06-26T16:05:14.136Z,17.30
2023-06-26T16:07:56.556Z,17.60
2023-06-26T16:10:26.432Z,18.47
2023-06-26T16:12:54.535Z,17.07
2023-06-26T16:15:22.583Z,15.30
2023-06-26T16:17:50.662Z,16.60
2023-06-26T16:20:20.082Z,15.33
2023-06-26T16:22:48.674Z,16.60
2023-06-26T16:25:16.683Z,15.60
2023-06-26T16:27:45.398Z,15.73
2023-06-26T16:30:14.506Z,18.23
2023-06-26T16:32:42.611Z,18.77
2023-06-26T16:35:10.707Z,17.60
2023-06-26T16:37:40.152Z,17.70
2023-06-26T16:40:08.708Z,17.53
2023-06-26T16:42:36.690Z,19.10
2023-06-26T16:45:04.922Z,20.23
2023-06-26T16:47:35.614Z,17.77
2023-06-26T16:50:05.186Z,17.87
2023-06-26T16:52:33.214Z,18.97
2023-06-26T16:55:02.576Z,18.30
2023-06-26T16:57:30.596Z,17.73
2023-06-26T16:59:58.611Z,16.80
2023-06-26T17:02:26.808Z,18.30
2023-06-26T17:04:54.995Z,18.93
2023-06-26T17:07:23.353Z,17.23
2023-06-26T17:09:51.468Z,18.80
2023-06-26T17:12:20.982Z,17.90
2023-06-26T17:14:48.956Z,18.00
2023-06-26T17:17:18.629Z,19.43
2023-06-26T17:19:46.707Z,18.53
2023-06-26T17:22:15.245Z,19.40
2023-06-26T17:24:43.216Z,19.13
2023-06-26T17:27:12.297Z,19.93
2023-06-26T17:29:42.430Z,17.07
2023-06-26T17:32:12.369Z,16.37
2023-06-26T17:34:44.883Z,16.27
2023-06-26T17:37:12.882Z,17.50
2023-06-26T17:39:40.904Z,16.50
2023-06-26T17:42:09.073Z,19.90
2023-06-26T17:44:37.044Z,19.97
2023-06-26T17:47:06.803Z,21.33
2023-06-26T17:49:34.810Z,19.17
2023-06-26T17:52:03.097Z,18.37
2023-06-26T17:54:31.124Z,19.87
2023-06-26T17:56:59.164Z,20.67
2023-06-26T17:59:27.161Z,19.83
2023-06-26T18:01:56.059Z,21.50
2023-06-26T18:04:25.679Z,21.13
2023-06-26T18:06:53.787Z,21.47
2023-06-26T18:09:21.886Z,17.50
2023-06-26T18:11:49.878Z,18.10
2023-06-26T18:14:17.836Z,19.70
2023-06-26T18:16:45.795Z,19.50
2023-06-26T18:19:13.849Z,21.03
2023-06-26T18:21:43.322Z,19.90
2023-06-26T18:24:11.349Z,18.47
2023-06-26T18:26:39.336Z,18.07
2023-06-26T18:29:07.266Z,19.10
2023-06-26T18:31:35.278Z,18.53
2023-06-26T18:34:03.313Z,19.27
2023-06-26T18:36:32.055Z,18.57
2023-06-26T18:39:01.620Z,19.63
2023-06-26T18:41:29.584Z,21.30
2023-06-26T18:43:57.612Z,27.00
2023-06-26T18:46:28.965Z,17.83
2023-06-26T18:49:03.742Z,17.93
2023-06-26T18:51:31.920Z,16.23
2023-06-26T18:54:02.220Z,21.87
2023-06-26T18:56:30.373Z,20.07
2023-06-26T18:58:58.567Z,16.47
2023-06-26T19:01:26.965Z,14.03
2023-06-26T19:03:54.984Z,19.40
2023-06-26T19:06:22.917Z,19.77
2023-06-26T19:08:50.951Z,17.43
2023-06-26T19:11:20.404Z,22.90
2023-06-26T19:13:48.457Z,21.23
2023-06-26T19:16:16.615Z,20.37
2023-06-26T19:18:44.588Z,19.43
2023-06-26T19:21:12.614Z,18.50
2023-06-26T19:23:40.704Z,16.93
2023-06-26T19:26:08.748Z,17.70
2023-06-26T19:28:38.198Z,19.00
2023-06-26T19:31:06.200Z,17.83
2023-06-26T19:33:34.229Z,18.20
2023-06-26T19:36:02.222Z,19.40
2023-06-26T19:38:30.282Z,17.80
2023-06-26T19:40:58.250Z,11.27
2023-06-26T19:43:26.209Z,9.70
2023-06-26T19:45:56.049Z,11.00
2023-06-26T19:48:25.150Z,11.50
2023-06-26T19:50:53.204Z,11.20
2023-06-26T19:53:21.173Z,10.60
2023-06-26T19:55:49.600Z,10.47
2023-06-26T19:58:17.591Z,11.07
2023-06-26T20:00:45.575Z,12.07
2023-06-26T20:03:15.127Z,13.57
2023-06-26T20:05:43.455Z,12.70
2023-06-26T20:08:11.557Z,12.23
2023-06-26T20:10:39.699Z,13.87
2023-06-26T20:13:09.429Z,12.60
2023-06-26T20:15:38.312Z,13.73
2023-06-26T20:18:06.690Z,12.77
2023-06-26T20:20:36.110Z,10.90
2023-06-26T20:23:04.166Z,14.90
2023-06-26T20:25:32.253Z,14.07
2023-06-26T20:28:00.332Z,12.50
2023-06-26T20:30:28.274Z,12.10
2023-06-26T20:32:56.232Z,12.70
2023-06-26T20:35:24.264Z,12.80
2023-06-26T20:37:53.655Z,14.53
2023-06-26T20:40:22.335Z,15.07
2023-06-26T20:42:50.576Z,14.10
2023-06-26T20:45:19.006Z,15.90
2023-06-26T20:47:47.505Z,14.40
2023-06-26T20:50:16.407Z,15.73
2023-06-26T20:52:45.035Z,16.73
2023-06-26T20:55:15.154Z,16.30
2023-06-26T20:57:43.224Z,17.63
2023-06-26T21:00:11.823Z,16.57
2023-06-26T21:02:39.812Z,19.07
2023-06-26T21:05:08.429Z,20.10
2023-06-26T21:07:36.461Z,19.07
2023-06-26T21:10:05.083Z,21.43
2023-06-26T21:12:35.884Z,42.13
2023-06-26T21:15:03.927Z,34.87
2023-06-26T21:17:31.995Z,34.20
2023-06-26T21:20:00.052Z,29.83
2023-06-26T21:22:28.024Z,18.63
2023-06-26T21:24:56.085Z,16.03
2023-06-26T21:27:24.056Z,14.03
2023-06-26T21:29:53.623Z,14.10
2023-06-26T21:32:21.878Z,15.00
2023-06-26T21:34:50.643Z,13.97
2023-06-26T21:37:18.627Z,15.30
2023-06-26T21:39:46.616Z,15.10
2023-06-26T21:42:14.569Z,14.70
2023-06-26T21:44:42.645Z,13.33
2023-06-26T21:47:12.062Z,15.20
2023-06-26T21:49:40.104Z,14.27
2023-06-26T21:52:08.254Z,14.97
2023-06-26T21:54:36.336Z,15.27
2023-06-26T21:57:04.886Z,17.80
2023-06-26T21:59:32.830Z,18.00
2023-06-26T22:02:01.016Z,14.93
2023-06-26T22:04:30.550Z,16.60
2023-06-26T22:06:58.665Z,18.43
2023-06-26T22:09:26.812Z,19.50
2023-06-26T22:11:55.750Z,18.50
2023-06-26T22:14:23.744Z,18.07
2023-06-26T22:16:51.960Z,18.80
2023-06-26T22:19:19.989Z,17.40
2023-06-26T22:21:49.880Z,18.40
2023-06-26T22:24:17.957Z,19.93
2023-06-26T22:26:45.966Z,20.60
2023-06-26T22:29:13.981Z,18.33
2023-06-26T22:31:42.106Z,17.47
2023-06-26T22:34:10.608Z,19.13
2023-06-26T22:36:38.692Z,18.73
2023-06-26T22:39:08.280Z,19.37
2023-06-26T22:41:36.797Z,19.80
2023-06-26T22:44:04.874Z,17.07
2023-06-26T22:46:33.000Z,17.23
2023-06-26T22:49:01.440Z,18.50
2023-06-26T22:51:29.429Z,20.30
2023-06-26T22:53:57.406Z,19.83
2023-06-26T22:56:27.765Z,17.83
2023-06-26T22:58:56.034Z,17.30
2023-06-26T23:01:24.085Z,19.90
2023-06-26T23:03:52.197Z,20.97
2023-06-26T23:06:22.863Z,20.43
2023-06-26T23:08:51.016Z,20.73
2023-06-26T23:11:18.981Z,20.53
2023-06-26T23:13:48.312Z,22.13
2023-06-26T23:16:16.320Z,18.13
2023-06-26T23:18:44.264Z,18.47
2023-06-26T23:21:12.312Z,19.97
2023-06-26T23:23:40.349Z,19.30
2023-06-26T23:26:08.421Z,18.13
2023-06-26T23:28:36.516Z,16.77
2023-06-26T23:31:06.766Z,17.97
2023-06-26T23:33:41.731Z,18.40
2023-06-26T23:36:10.665Z,18.80
2023-06-26T23:38:43.794Z,19.33
2023-06-26T23:41:11.897Z,20.07
2023-06-26T23:43:41.300Z,18.97
2023-06-26T23:46:12.427Z,20.90
2023-06-26T23:48:40.952Z,21.37
2023-06-26T23:51:10.165Z,21.07
2023-06-26T23:53:40.256Z,21.30
2023-06-26T23:56:08.453Z,21.73
2023-06-26T23:58:37.139Z,20.30
